Time;durP1;ratioP1;P1;durP2;ratioP2;P2;SDS_P1;SDS_P2;PMS_P1;PMS_P2;Temp;Humidity;BMP_temperature;BMP_pressure;BME280_temperature;BME280_humidity;BME280_pressure;Samples;Min_cycle;Max_cycle;Signal;HPM_P1;HPM_P2
2021/01/28 17:11:39;;;;;;;0.70;0.60;;;21.50;47.80;;;;;;5110686;27;20891;-39
2021/01/28 17:14:05;;;;;;;3.05;0.60;;;21.50;48.60;;;;;;5110288;28;20098;-45
2021/01/28 17:16:30;;;;;;;2.13;0.80;;;21.50;48.40;;;;;;5110438;28;20098;-39
2021/01/28 17:18:56;;;;;;;0.45;0.45;;;21.50;48.20;;;;;;5110359;28;20020;-39
2021/01/28 17:21:22;;;;;;;3.35;0.70;;;21.50;48.20;;;;;;5109890;28;20020;-38
2021/01/28 17:23:48;;;;;;;2.10;0.70;;;21.40;48.20;;;;;;5110258;28;20028;-38
2021/01/28 17:26:14;;;;;;;0.90;0.90;;;21.40;48.20;;;;;;5110258;28;20154;-40
2021/01/28 17:28:40;;;;;;;6.90;1.45;;;21.40;48.20;;;;;;5109852;28;20081;-50
2021/01/28 17:31:06;;;;;;;1.00;0.60;;;21.40;48.10;;;;;;5109705;28;20035;-39
2021/01/28 17:33:33;;;;;;;1.55;0.50;;;21.40;48.20;;;;;;5110093;28;20012;-39
2021/01/28 17:35:59;;;;;;;0.60;0.60;;;21.40;48.20;;;;;;5110116;28;20107;-39
2021/01/28 17:38:25;;;;;;;2.50;1.10;;;21.40;48.20;;;;;;5109886;28;20073;-40
2021/01/28 17:40:51;;;;;;;1.77;0.70;;;21.30;48.00;;;;;;5109968;28;20027;-39
2021/01/28 17:43:17;;;;;;;2.17;0.82;;;21.30;47.90;;;;;;5109942;28;20110;-42
2021/01/28 17:45:43;;;;;;;1.00;0.60;;;21.30;47.90;;;;;;5109765;28;20085;-45
2021/01/28 17:48:10;;;;;;;1.23;0.88;;;21.30;48.00;;;;;;5109903;28;20519;-47
2021/01/28 17:50:36;;;;;;;0.73;0.70;;;21.30;47.90;;;;;;5109722;28;20473;-46
2021/01/28 17:53:03;;;;;;;3.38;0.80;;;21.30;47.80;;;;;;5109262;28;20031;-54
2021/01/28 17:55:31;;;;;;;1.38;1.10;;;21.30;47.90;;;;;;5109693;28;20031;-44
2021/01/28 17:57:57;;;;;;;1.60;0.70;;;21.30;47.80;;;;;;5109653;28;20020;-44
2021/01/28 18:00:25;;;;;;;0.60;0.60;;;21.30;47.90;;;;;;5109458;28;20469;-41
2021/01/28 18:02:52;;;;;;;1.20;0.60;;;21.30;47.80;;;;;;5109583;28;20020;-39
2021/01/28 18:05:18;;;;;;;0.82;0.70;;;21.20;47.60;;;;;;5109257;28;20028;-41
2021/01/28 18:07:44;;;;;;;2.20;0.63;;;21.20;47.50;;;;;;5109304;28;20035;-46
2021/01/28 18:10:10;;;;;;;2.60;0.60;;;21.30;47.80;;;;;;5109045;28;20069;-44
2021/01/28 18:12:36;;;;;;;3.97;1.00;;;21.20;47.60;;;;;;5109329;28;20350;-44
2021/01/28 18:15:03;;;;;;;2.70;0.60;;;21.20;47.60;;;;;;5109177;28;20020;-40
2021/01/28 18:17:30;;;;;;;1.65;0.77;;;21.10;47.60;;;;;;5109193;28;20012;-35
2021/01/28 18:19:57;;;;;;;1.05;0.60;;;21.10;47.60;;;;;;5109200;28;20109;-39
2021/01/28 18:22:24;;;;;;;1.58;0.73;;;21.10;47.60;;;;;;5098313;28;20020;-38
2021/01/28 18:24:50;;;;;;;1.00;0.90;;;21.10;47.60;;;;;;5095517;28;20036;-42
2021/01/28 18:27:16;;;;;;;1.42;0.60;;;21.10;47.60;;;;;;5095557;28;20097;-44
2021/01/28 18:29:42;;;;;;;2.03;0.60;;;21.10;47.40;;;;;;5095028;28;20031;-51
2021/01/28 18:32:08;;;;;;;2.53;0.90;;;21.10;47.40;;;;;;5095342;28;20020;-47
2021/01/28 18:34:36;;;;;;;3.13;0.90;;;21.10;47.40;;;;;;5095366;28;20024;-39
2021/01/28 18:37:01;;;;;;;0.90;0.80;;;21.10;47.40;;;;;;5095237;28;20023;-44
2021/01/28 18:39:27;;;;;;;0.80;0.80;;;21.00;47.40;;;;;;5095336;28;20033;-44
2021/01/28 18:41:54;;;;;;;1.05;0.95;;;21.00;47.40;;;;;;5094933;28;20020;-45
2021/01/28 18:44:20;;;;;;;0.70;0.70;;;21.00;47.40;;;;;;5095014;28;20032;-36
2021/01/28 18:46:46;;;;;;;1.90;0.70;;;21.00;47.40;;;;;;5095216;28;20016;-35
2021/01/28 18:49:13;;;;;;;1.83;0.80;;;21.00;50.80;;;;;;5095008;28;20047;-31
2021/01/28 18:51:39;;;;;;;0.50;0.50;;;21.50;49.10;;;;;;5094538;28;20488;-42
2021/01/28 18:54:05;;;;;;;1.35;0.65;;;21.50;48.80;;;;;;5094873;28;20031;-34
2021/01/28 18:56:32;;;;;;;4.38;0.75;;;21.50;48.30;;;;;;5094595;28;20073;-44
2021/01/28 18:58:58;;;;;;;0.70;0.50;;;21.50;49.40;;;;;;5094534;28;20099;-31
2021/01/28 19:01:23;;;;;;;1.58;0.70;;;21.40;49.10;;;;;;5094390;28;20048;-32
2021/01/28 19:03:49;;;;;;;1.30;0.45;;;21.30;47.40;;;;;;5094772;28;20059;-30
2021/01/28 19:06:15;;;;;;;2.08;0.90;;;21.30;47.60;;;;;;5094395;28;20392;-32
